Wise, VA

4:32 AM EDT on June 29, 2017 (GMT -0400)
Lonesome Pine

Weather History for KLNP - October, 2011

Change the Weather History Date:

Saturday, October 8, 2011

  Actual Average Record
Temperature  
Mean Temperature 64 °F -  
Max Temperature 75 °F 65 °F 87 °F (2007)
Min Temperature 53 °F 46 °F 35 °F (2001)
Degree Days  
Heating Degree Days 1    
Growing Degree Days 14 (Base 50)    
Moisture  
Dew Point 40 °F    
Average Humidity 45    
Maximum Humidity 72    
Minimum Humidity 19    
Precipitation  
Precipitation 0.00 in - - ()
Sea Level Pressure  
Sea Level Pressure 30.47 in    
Wind  
Wind Speed 5 mph (SSE)    
Max Wind Speed 9 mph    
Max Gust Speed -    
Visibility 10 miles    
Events      
Averages and records for this station are not official NWS values.
T = Trace of Precipitation, MM = Missing Value Source: NWS Daily Summary

Daily Weather History Graph

Daily Weather History Graph

Search for Another Location

Airport or City:

Trip Planner

Search our weather history database for the weather conditions in past years. The results will help you decide how hot, cold, wet, or windy it might be!

Date:

Astronomy

Oct. 08, 2011 Rise Set
Actual Time 7:31 AM EDT 7:03 PM EDT
Civil Twilight 7:05 AM EDT 7:29 PM EDT
Nautical Twilight 6:35 AM EDT 7:59 PM EDT
Astronomical Twilight 6:05 AM EDT 8:29 PM EDT
Moon 5:10 PM EDT (10/8) 4:21 AM EDT (10/8)
Length of Visible Light 12h 24m
Length of Day
11h 32m
Waxing Gibbous, 90% of the Moon is Illuminated
Oct 8
Waxing Gibbous
Oct 11
Full
Oct 19
Last Quarter
Oct 26
New
Nov 2
First Quarter

Hourly Weather History & Observations

Time (EDT) Temp. Dew Point Humidity Pressure Visibility Wind Dir Wind Speed Gust Speed Precip Events Conditions
12:35 AM 60.8 °F 48.2 °F 63% 30.45 in 10.0 mi SSE 4.6 mph - N/A   Unknown
12:55 AM 60.8 °F 48.2 °F 63% 30.45 in 10.0 mi South 4.6 mph - N/A   Unknown
1:15 AM 60.8 °F 46.4 °F 59% 30.45 in 10.0 mi South 8.1 mph - N/A   Unknown
1:35 AM 59.0 °F 46.4 °F 63% 30.45 in 10.0 mi SSE 8.1 mph - N/A   Unknown
2:15 AM 57.2 °F 46.4 °F 67% 30.45 in 10.0 mi SSE 5.8 mph - N/A   Unknown
2:35 AM 57.2 °F 46.4 °F 67% 30.45 in 10.0 mi South 6.9 mph - N/A   Unknown
3:15 AM 57.2 °F 44.6 °F 63% 30.44 in 10.0 mi South 5.8 mph - N/A   Unknown
3:35 AM 57.2 °F 44.6 °F 63% 30.44 in 10.0 mi South 5.8 mph - N/A   Unknown
3:55 AM 55.4 °F 44.6 °F 67% 30.45 in 10.0 mi SSE 6.9 mph - N/A   Unknown
4:35 AM 55.4 °F 44.6 °F 67% 30.45 in 10.0 mi South 4.6 mph - N/A   Unknown
4:55 AM 53.6 °F 44.6 °F 72% 30.46 in 10.0 mi South 3.5 mph - N/A   Unknown
5:15 AM 53.6 °F 44.6 °F 72% 30.46 in 10.0 mi South 3.5 mph - N/A   Unknown
5:35 AM 53.6 °F 44.6 °F 72% 30.46 in 10.0 mi South 4.6 mph - N/A   Unknown
5:55 AM 53.6 °F 44.6 °F 72% 30.47 in 10.0 mi South 4.6 mph - N/A   Unknown
6:15 AM 53.6 °F 44.6 °F 72% 30.47 in 10.0 mi South 4.6 mph - N/A   Unknown
6:35 AM 55.4 °F 44.6 °F 67% 30.47 in 10.0 mi South 6.9 mph - N/A   Unknown
6:55 AM 53.6 °F 44.6 °F 72% 30.48 in 10.0 mi SSE 8.1 mph - N/A   Unknown
7:15 AM 55.4 °F 44.6 °F 67% 30.48 in 10.0 mi SSE 9.2 mph - N/A   Unknown
7:35 AM 55.4 °F 44.6 °F 67% 30.48 in 10.0 mi South 9.2 mph - N/A   Unknown
7:55 AM 55.4 °F 42.8 °F 63% 30.49 in 10.0 mi SSE 5.8 mph - N/A   Unknown
8:15 AM 55.4 °F 42.8 °F 63% 30.49 in 10.0 mi SSE 6.9 mph - N/A   Unknown
8:35 AM 57.2 °F 42.8 °F 59% 30.49 in 10.0 mi SSE 8.1 mph - N/A   Unknown
8:55 AM 57.2 °F 42.8 °F 59% 30.50 in 10.0 mi SSE 6.9 mph - N/A   Unknown
9:15 AM 59.0 °F 42.8 °F 55% 30.51 in 10.0 mi SSE 6.9 mph - N/A   Unknown
9:35 AM 60.8 °F 42.8 °F 52% 30.51 in 10.0 mi SSE 6.9 mph - N/A   Unknown
9:55 AM 60.8 °F 41.0 °F 48% 30.51 in 10.0 mi SSE 6.9 mph - N/A   Unknown
10:15 AM 62.6 °F 39.2 °F 42% 30.52 in 10.0 mi SSE 8.1 mph - N/A   Unknown
10:55 AM 64.4 °F 39.2 °F 40% 30.51 in 10.0 mi South 4.6 mph - N/A   Unknown
11:15 AM 66.2 °F 39.2 °F 37% 30.51 in 10.0 mi Calm Calm - N/A   Unknown
11:35 AM 68.0 °F 37.4 °F 33% 30.51 in 10.0 mi SSE 3.5 mph - N/A   Unknown
12:15 PM 69.8 °F 35.6 °F 28% 30.51 in 10.0 mi SSE 3.5 mph - N/A   Unknown
12:35 PM 71.6 °F 26.6 °F 19% 30.50 in 10.0 mi Calm Calm - N/A   Unknown
12:55 PM 73.4 °F 33.8 °F 23% 30.50 in 10.0 mi Calm Calm - N/A   Unknown
1:15 PM 73.4 °F 37.4 °F 27% 30.49 in 10.0 mi Calm Calm - N/A   Unknown
1:35 PM 73.4 °F 35.6 °F 25% 30.49 in 10.0 mi ENE 3.5 mph - N/A   Unknown
1:55 PM 73.4 °F 35.6 °F 25% 30.48 in 10.0 mi Calm Calm - N/A   Unknown
2:15 PM 75.2 °F 35.6 °F 24% 30.47 in 10.0 mi Calm Calm - N/A   Unknown
2:35 PM 75.2 °F 33.8 °F 22% 30.46 in 10.0 mi Calm Calm - N/A   Unknown
2:55 PM 75.2 °F 35.6 °F 24% 30.45 in 10.0 mi NE 4.6 mph - N/A   Unknown
3:15 PM 75.2 °F 32.0 °F 21% 30.45 in 10.0 mi Calm Calm - N/A   Unknown
3:35 PM 75.2 °F 33.8 °F 22% 30.44 in 10.0 mi Calm Calm - N/A   Unknown
3:55 PM 75.2 °F 30.2 °F 19% 30.44 in 10.0 mi Calm Calm - N/A   Unknown
4:15 PM 75.2 °F 32.0 °F 21% 30.44 in 10.0 mi ENE 4.6 mph - N/A   Unknown
4:35 PM 75.2 °F 33.8 °F 22% 30.43 in 10.0 mi Calm Calm - N/A   Unknown
4:55 PM 75.2 °F 32.0 °F 21% 30.43 in 10.0 mi SE 3.5 mph - N/A   Unknown
5:15 PM 75.2 °F 33.8 °F 22% 30.43 in 10.0 mi Calm Calm - N/A   Unknown
5:35 PM 75.2 °F 33.8 °F 22% 30.43 in 10.0 mi Calm Calm - N/A   Unknown
5:55 PM 75.2 °F 35.6 °F 24% 30.43 in 10.0 mi Calm Calm - N/A   Unknown
6:15 PM 73.4 °F 37.4 °F 27% 30.43 in 10.0 mi Calm Calm - N/A   Unknown
6:35 PM 73.4 °F 37.4 °F 27% 30.43 in 10.0 mi Calm Calm - N/A   Unknown
6:55 PM 69.8 °F 35.6 °F 28% 30.43 in 10.0 mi Calm Calm - N/A   Unknown
7:15 PM 66.2 °F 35.6 °F 32% 30.43 in 10.0 mi ENE 3.5 mph - N/A   Unknown
7:35 PM 62.6 °F 42.8 °F 48% 30.43 in 10.0 mi North 4.6 mph - N/A   Unknown
7:55 PM 62.6 °F 42.8 °F 48% 30.43 in 10.0 mi NE 4.6 mph - N/A   Unknown
8:15 PM 62.6 °F 42.8 °F 48% 30.43 in 10.0 mi NE 3.5 mph - N/A   Unknown
8:35 PM 64.4 °F 44.6 °F 49% 30.44 in 10.0 mi Calm Calm - N/A   Unknown
8:55 PM 64.4 °F 44.6 °F 49% 30.44 in 10.0 mi Calm Calm - N/A   Unknown
9:15 PM 64.4 °F 42.8 °F 45% 30.45 in 10.0 mi Calm Calm - N/A   Unknown
9:35 PM 62.6 °F 39.2 °F 42% 30.45 in 10.0 mi Calm Calm - N/A   Unknown
9:55 PM 64.4 °F 41.0 °F 42% 30.45 in 10.0 mi East 3.5 mph - N/A   Unknown
10:15 PM 62.6 °F 42.8 °F 48% 30.45 in 10.0 mi Calm Calm - N/A   Unknown
10:35 PM 62.6 °F 42.8 °F 48% 30.46 in 10.0 mi Calm Calm - N/A   Unknown
10:55 PM 60.8 °F 42.8 °F 52% 30.45 in 10.0 mi Calm Calm - N/A   Unknown
11:15 PM 60.8 °F 42.8 °F 52% 30.45 in 10.0 mi Calm Calm - N/A   Unknown
11:35 PM 60.8 °F 42.8 °F 52% 30.45 in 10.0 mi South 3.5 mph - N/A   Unknown
11:55 PM 60.8 °F 44.6 °F 55% 30.45 in 10.0 mi SE 3.5 mph - N/A   Unknown